createdAt,value
2023-03-07T00:01:48.078Z,14.17
2023-03-07T00:04:14.734Z,14.50
2023-03-07T00:06:41.207Z,13.07
2023-03-07T00:09:07.798Z,14.10
2023-03-07T00:11:34.221Z,15.90
2023-03-07T00:14:00.661Z,12.67
2023-03-07T00:16:27.359Z,14.10
2023-03-07T00:18:55.184Z,14.63
2023-03-07T00:21:22.518Z,14.63
2023-03-07T00:23:49.246Z,12.77
2023-03-07T00:26:21.533Z,17.27
2023-03-07T00:28:50.932Z,12.20
2023-03-07T00:31:18.930Z,10.50
2023-03-07T00:33:45.448Z,11.77
2023-03-07T00:36:23.052Z,10.73
2023-03-07T00:38:50.268Z,9.63
2023-03-07T00:41:34.855Z,9.80
2023-03-07T00:44:01.243Z,8.80
2023-03-07T00:46:27.923Z,8.27
2023-03-07T00:48:55.194Z,9.50
2023-03-07T00:51:23.509Z,8.70
2023-03-07T00:53:50.359Z,7.70
2023-03-07T00:56:22.918Z,7.40
2023-03-07T00:58:50.397Z,6.80
2023-03-07T01:01:21.122Z,7.20
2023-03-07T01:03:53.387Z,6.90
2023-03-07T01:06:23.250Z,6.90
2023-03-07T01:08:49.694Z,6.63
2023-03-07T01:11:16.877Z,6.37
2023-03-07T01:13:43.389Z,6.30
2023-03-07T01:16:21.511Z,7.10
2023-03-07T01:18:54.327Z,5.73
2023-03-07T01:21:27.259Z,6.00
2023-03-07T01:23:54.634Z,5.90
2023-03-07T01:26:27.494Z,6.53
2023-03-07T01:28:56.388Z,4.87
2023-03-07T01:31:23.689Z,5.77
2023-03-07T01:33:52.157Z,5.00
2023-03-07T01:36:30.998Z,5.80
2023-03-07T01:39:02.700Z,5.20
2023-03-07T01:41:32.153Z,5.33
2023-03-07T01:43:59.795Z,5.40
2023-03-07T01:46:45.165Z,4.87
2023-03-07T01:49:20.956Z,4.80
2023-03-07T01:51:51.860Z,4.63
2023-03-07T01:54:20.490Z,5.07
2023-03-07T01:56:47.786Z,4.87
2023-03-07T01:59:19.247Z,4.30
2023-03-07T02:01:45.663Z,3.83
2023-03-07T02:04:28.455Z,4.57
2023-03-07T02:06:54.902Z,4.33
2023-03-07T02:09:23.951Z,3.30
2023-03-07T02:11:50.454Z,3.50
2023-03-07T02:14:16.978Z,3.37
2023-03-07T02:16:43.496Z,4.00
2023-03-07T02:19:26.672Z,4.10
2023-03-07T02:22:08.845Z,4.37
2023-03-07T02:24:48.231Z,4.50
2023-03-07T02:27:15.051Z,4.07
2023-03-07T02:32:28.012Z,4.10
2023-03-07T02:34:54.524Z,4.47
2023-03-07T02:37:20.860Z,4.10
2023-03-07T02:39:48.409Z,4.70
2023-03-07T02:42:21.311Z,4.50
2023-03-07T02:44:56.894Z,3.87
2023-03-07T02:47:23.496Z,4.30
2023-03-07T02:49:49.934Z,4.53
2023-03-07T02:52:16.468Z,4.90
2023-03-07T02:54:42.854Z,5.00
2023-03-07T02:57:10.567Z,4.93
2023-03-07T02:59:37.238Z,5.70
2023-03-07T03:02:03.972Z,4.97
2023-03-07T03:04:30.395Z,4.40
2023-03-07T03:06:57.014Z,5.17
2023-03-07T03:09:23.583Z,4.60
2023-03-07T03:11:49.980Z,5.70
2023-03-07T03:14:16.337Z,5.17
2023-03-07T03:16:42.876Z,5.60
2023-03-07T03:19:09.534Z,6.00
2023-03-07T03:21:35.960Z,5.50
2023-03-07T03:24:06.995Z,5.80
2023-03-07T03:26:34.531Z,5.60
2023-03-07T03:29:01.731Z,5.30
2023-03-07T03:31:31.336Z,6.20
2023-03-07T03:33:59.158Z,5.97
2023-03-07T03:36:26.686Z,5.90
2023-03-07T03:38:57.255Z,7.07
2023-03-07T03:41:24.539Z,5.80
2023-03-07T03:43:51.469Z,6.70
2023-03-07T03:46:19.650Z,6.47
2023-03-07T03:48:56.219Z,7.13
2023-03-07T03:51:24.393Z,7.83
2023-03-07T03:53:51.343Z,7.17
2023-03-07T03:56:20.534Z,7.00
2023-03-07T03:58:52.151Z,6.50
2023-03-07T04:01:21.003Z,7.27
2023-03-07T04:03:50.076Z,7.70
2023-03-07T04:06:19.889Z,7.60
2023-03-07T04:08:46.914Z,7.23
2023-03-07T04:11:13.705Z,7.37
2023-03-07T04:13:40.368Z,7.83
2023-03-07T04:16:07.206Z,8.50
2023-03-07T04:18:35.087Z,8.10
2023-03-07T04:21:01.667Z,8.70
2023-03-07T04:23:28.736Z,8.23
2023-03-07T04:25:57.607Z,8.60
2023-03-07T04:28:26.072Z,9.30
2023-03-07T04:30:53.168Z,8.60
2023-03-07T04:33:20.246Z,8.40
2023-03-07T04:35:46.803Z,9.43
2023-03-07T04:38:15.292Z,9.63
2023-03-07T04:40:41.775Z,9.73
2023-03-07T04:43:08.307Z,9.60
2023-03-07T04:45:37.204Z,9.90
2023-03-07T04:48:04.140Z,11.00
2023-03-07T04:50:30.518Z,9.60
2023-03-07T04:52:56.908Z,11.43
2023-03-07T04:55:23.399Z,10.07
2023-03-07T04:57:51.886Z,9.30
2023-03-07T05:00:19.452Z,9.10
2023-03-07T05:02:46.758Z,10.43
2023-03-07T05:05:13.145Z,10.30
2023-03-07T05:07:39.601Z,10.13
2023-03-07T05:10:06.572Z,8.80
2023-03-07T05:12:32.986Z,9.23
2023-03-07T05:15:00.845Z,9.53
2023-03-07T05:17:27.303Z,10.70
2023-03-07T05:19:56.498Z,9.43
2023-03-07T05:22:23.214Z,9.50
2023-03-07T05:24:49.558Z,9.60
2023-03-07T05:27:16.551Z,10.00
2023-03-07T05:29:43.061Z,7.97
2023-03-07T05:32:10.953Z,9.30
2023-03-07T05:34:38.351Z,9.47
2023-03-07T05:37:05.098Z,9.50
2023-03-07T05:39:31.571Z,9.67
2023-03-07T05:41:57.976Z,10.30
2023-03-07T05:44:24.411Z,9.33
2023-03-07T05:46:50.793Z,10.40
2023-03-07T05:49:17.266Z,10.03
2023-03-07T05:51:43.707Z,9.60
2023-03-07T05:54:10.132Z,9.57
2023-03-07T05:56:37.685Z,9.80
2023-03-07T05:59:04.367Z,11.10
2023-03-07T06:01:30.766Z,9.30
2023-03-07T06:03:57.187Z,9.87
2023-03-07T06:06:23.681Z,9.33
2023-03-07T06:08:50.068Z,9.30
2023-03-07T06:11:16.480Z,9.17
2023-03-07T06:13:42.954Z,9.60
2023-03-07T06:16:09.420Z,9.43
2023-03-07T06:18:35.854Z,10.20
2023-03-07T06:21:05.180Z,9.00
2023-03-07T06:23:33.938Z,9.37
2023-03-07T06:26:01.362Z,9.67
2023-03-07T06:28:28.275Z,8.80
2023-03-07T06:30:54.688Z,8.07
2023-03-07T06:33:21.213Z,9.07
2023-03-07T06:35:47.714Z,9.30
2023-03-07T06:38:15.759Z,9.47
2023-03-07T06:40:42.627Z,9.73
2023-03-07T06:43:12.132Z,9.20
2023-03-07T06:45:38.592Z,8.70
2023-03-07T06:48:05.100Z,9.10
2023-03-07T06:50:35.361Z,9.90
2023-03-07T06:53:02.084Z,9.23
2023-03-07T06:55:28.501Z,9.77
2023-03-07T06:57:55.150Z,9.60
2023-03-07T07:00:22.650Z,8.73
2023-03-07T07:02:49.888Z,9.60
2023-03-07T07:05:16.528Z,9.67
2023-03-07T07:07:42.922Z,9.77
2023-03-07T07:10:10.122Z,8.83
2023-03-07T07:12:36.536Z,8.60
2023-03-07T07:15:05.547Z,9.57
2023-03-07T07:17:35.568Z,9.33
2023-03-07T07:20:06.689Z,9.13
2023-03-07T07:22:33.523Z,8.70
2023-03-07T07:24:59.970Z,9.43
2023-03-07T07:27:28.258Z,8.90
2023-03-07T07:29:54.684Z,8.73
2023-03-07T07:32:21.168Z,8.13
2023-03-07T07:34:47.745Z,8.63
2023-03-07T07:37:14.298Z,8.67
2023-03-07T07:39:43.737Z,9.27
2023-03-07T07:42:11.558Z,9.23
2023-03-07T07:44:37.994Z,8.60
2023-03-07T07:47:04.538Z,10.10
2023-03-07T07:49:30.997Z,9.30
2023-03-07T07:51:57.451Z,9.33
2023-03-07T07:54:24.035Z,8.83
2023-03-07T07:56:50.442Z,8.90
2023-03-07T07:59:16.808Z,10.07
2023-03-07T08:01:43.367Z,9.73
2023-03-07T08:04:09.781Z,9.87
2023-03-07T08:06:36.339Z,8.33
2023-03-07T08:09:03.164Z,9.00
2023-03-07T08:11:29.621Z,9.20
2023-03-07T08:13:56.060Z,8.27
2023-03-07T08:16:23.313Z,9.20
2023-03-07T08:18:53.512Z,9.00
2023-03-07T08:21:21.090Z,9.10
2023-03-07T08:23:47.722Z,7.80
2023-03-07T08:26:14.326Z,7.77
2023-03-07T08:28:41.868Z,8.60
2023-03-07T08:31:14.035Z,9.00
2023-03-07T08:33:40.907Z,8.60
2023-03-07T08:36:07.801Z,9.03
2023-03-07T08:38:34.828Z,7.90
2023-03-07T08:41:02.224Z,8.47
2023-03-07T08:43:30.889Z,8.07
2023-03-07T08:45:57.704Z,8.23
2023-03-07T08:48:24.647Z,8.40
2023-03-07T08:50:53.208Z,8.17
2023-03-07T08:53:21.353Z,8.93
2023-03-07T08:55:48.067Z,8.00
2023-03-07T08:58:14.570Z,8.03
2023-03-07T09:00:41.215Z,7.27
2023-03-07T09:03:07.767Z,8.40
2023-03-07T09:05:37.661Z,7.90
2023-03-07T09:08:04.873Z,7.63
2023-03-07T09:10:31.274Z,7.67
2023-03-07T09:12:58.475Z,7.90
2023-03-07T09:15:25.550Z,8.37
2023-03-07T09:17:51.938Z,6.80
2023-03-07T09:20:18.707Z,7.20
2023-03-07T09:22:46.788Z,7.80
2023-03-07T09:25:13.760Z,7.67
2023-03-07T09:27:40.286Z,7.70
2023-03-07T09:30:07.582Z,7.80
2023-03-07T09:32:34.206Z,7.00
2023-03-07T09:35:00.665Z,7.20
2023-03-07T09:37:27.192Z,7.40
2023-03-07T09:39:53.579Z,7.50
2023-03-07T09:42:24.890Z,6.50
2023-03-07T09:45:07.933Z,7.17
2023-03-07T09:48:03.825Z,6.87
2023-03-07T09:50:52.234Z,6.77
2023-03-07T09:53:37.767Z,6.13
2023-03-07T09:56:12.364Z,6.10
2023-03-07T09:58:43.372Z,5.90
2023-03-07T10:01:12.323Z,6.43
2023-03-07T10:04:14.312Z,7.00
2023-03-07T10:06:43.454Z,7.30
2023-03-07T10:09:19.036Z,6.90
2023-03-07T10:12:00.582Z,6.57
2023-03-07T10:15:03.761Z,6.03
2023-03-07T10:17:49.014Z,5.97
2023-03-07T10:20:35.291Z,5.87
2023-03-07T10:23:32.549Z,6.30
2023-03-07T10:26:18.655Z,5.80
2023-03-07T10:28:46.574Z,6.10
2023-03-07T10:31:16.888Z,5.40
2023-03-07T10:33:47.366Z,6.07
2023-03-07T10:36:20.213Z,5.20
2023-03-07T10:38:55.821Z,5.80
2023-03-07T10:41:22.765Z,4.70
2023-03-07T10:43:52.110Z,5.93
2023-03-07T10:46:27.487Z,5.27
2023-03-07T10:49:01.603Z,5.10
2023-03-07T10:51:44.999Z,5.97
2023-03-07T10:54:18.808Z,5.03
2023-03-07T10:57:13.052Z,4.57
2023-03-07T10:59:43.550Z,4.57
2023-03-07T11:02:28.494Z,4.87
2023-03-07T11:04:55.442Z,5.40
2023-03-07T11:07:28.375Z,5.17
2023-03-07T11:09:56.599Z,4.80
2023-03-07T11:12:25.408Z,5.30
2023-03-07T11:15:18.252Z,4.80
2023-03-07T11:17:46.773Z,4.77
2023-03-07T11:20:46.292Z,4.17
2023-03-07T11:23:23.456Z,4.20
2023-03-07T11:25:51.613Z,4.67
2023-03-07T11:28:33.499Z,4.60
2023-03-07T11:31:28.969Z,3.90
2023-03-07T11:34:00.779Z,4.47
2023-03-07T11:36:36.448Z,3.70
2023-03-07T11:39:15.284Z,4.70
2023-03-07T11:41:56.017Z,3.97
2023-03-07T11:44:46.203Z,4.20
2023-03-07T11:47:12.538Z,4.70
2023-03-07T11:49:46.393Z,3.80
2023-03-07T11:52:45.733Z,4.47
2023-03-07T11:55:24.871Z,3.97
2023-03-07T11:57:54.054Z,4.13
2023-03-07T12:00:26.699Z,4.13
2023-03-07T12:03:04.548Z,3.20
2023-03-07T12:05:45.591Z,4.17
2023-03-07T12:08:40.612Z,4.30
2023-03-07T12:11:19.392Z,4.43
2023-03-07T12:13:54.654Z,3.50
2023-03-07T12:16:37.727Z,4.47
2023-03-07T12:19:25.837Z,4.00
2023-03-07T12:22:30.654Z,4.07
2023-03-07T12:25:26.330Z,4.53
2023-03-07T12:28:03.817Z,4.87
2023-03-07T12:31:00.748Z,4.63
2023-03-07T12:33:48.659Z,4.10
2023-03-07T12:36:26.427Z,4.97
2023-03-07T12:38:56.630Z,4.53
2023-03-07T12:41:52.024Z,4.30
2023-03-07T12:44:44.859Z,4.63
2023-03-07T12:47:44.119Z,5.30
2023-03-07T12:50:33.857Z,4.90
2023-03-07T12:53:11.023Z,5.50
2023-03-07T12:55:44.672Z,5.20
2023-03-07T12:58:39.986Z,5.10
2023-03-07T13:01:21.741Z,4.80
2023-03-07T13:03:56.503Z,5.50
2023-03-07T13:06:24.970Z,5.30
2023-03-07T13:08:58.460Z,5.17
2023-03-07T13:11:27.544Z,5.20
2023-03-07T13:13:56.930Z,4.90
2023-03-07T13:16:43.742Z,5.83
2023-03-07T13:19:31.227Z,5.67
2023-03-07T13:21:58.304Z,5.47
2023-03-07T13:24:42.108Z,5.63
2023-03-07T13:27:30.828Z,5.33
2023-03-07T13:30:12.439Z,4.50
2023-03-07T13:32:50.976Z,5.27
2023-03-07T13:35:29.486Z,5.40
2023-03-07T13:38:17.904Z,4.80
2023-03-07T13:40:44.220Z,4.87
2023-03-07T13:43:19.542Z,4.57
2023-03-07T13:45:56.667Z,5.60
2023-03-07T13:48:29.890Z,5.73
2023-03-07T13:50:59.254Z,5.10
2023-03-07T13:53:31.868Z,4.20
2023-03-07T13:56:04.641Z,5.00
2023-03-07T13:58:37.671Z,5.30
2023-03-07T14:01:20.686Z,4.60
2023-03-07T14:03:53.993Z,4.50
2023-03-07T14:06:22.204Z,4.70
2023-03-07T14:08:50.980Z,4.30
2023-03-07T14:11:31.028Z,4.73
2023-03-07T14:14:15.786Z,4.87
2023-03-07T14:17:19.950Z,4.10
2023-03-07T14:20:11.295Z,4.50
2023-03-07T14:22:54.987Z,4.60
2023-03-07T14:25:26.634Z,4.50
2023-03-07T14:28:17.813Z,4.70
2023-03-07T14:30:55.093Z,4.00
2023-03-07T14:33:22.093Z,4.20
2023-03-07T14:35:48.548Z,4.90
2023-03-07T14:38:22.433Z,4.30
2023-03-07T14:41:06.747Z,4.90
2023-03-07T14:43:53.029Z,4.60
2023-03-07T14:46:33.808Z,4.87
2023-03-07T14:49:03.298Z,5.80
2023-03-07T14:51:30.822Z,5.00
2023-03-07T14:53:57.684Z,5.10
2023-03-07T14:56:27.852Z,5.17
2023-03-07T14:59:01.812Z,5.07
2023-03-07T15:01:40.193Z,5.37
2023-03-07T15:04:29.777Z,4.90
2023-03-07T15:07:01.772Z,6.27
2023-03-07T15:09:28.890Z,5.70
2023-03-07T15:12:07.875Z,5.90
2023-03-07T15:14:46.447Z,6.10
2023-03-07T15:17:27.419Z,5.57
2023-03-07T15:20:07.556Z,6.70
2023-03-07T15:22:40.273Z,5.93
2023-03-07T15:25:17.664Z,5.90
2023-03-07T15:27:44.204Z,6.40
2023-03-07T15:30:23.769Z,5.57
2023-03-07T15:33:03.789Z,5.70
2023-03-07T15:35:30.401Z,5.90
2023-03-07T15:38:00.232Z,6.30
2023-03-07T15:40:29.158Z,5.77
2023-03-07T15:43:15.337Z,7.33
2023-03-07T15:45:43.785Z,7.10
2023-03-07T15:48:24.193Z,6.70
2023-03-07T15:50:55.488Z,6.50
2023-03-07T15:53:31.062Z,5.90
2023-03-07T15:55:59.678Z,7.27
2023-03-07T15:58:27.133Z,6.13
2023-03-07T16:01:17.915Z,7.50
2023-03-07T16:03:53.396Z,6.17
2023-03-07T16:06:38.128Z,7.23
2023-03-07T16:09:05.786Z,5.77
2023-03-07T16:11:32.854Z,6.73
2023-03-07T16:13:59.778Z,6.07
2023-03-07T16:16:30.409Z,6.20
2023-03-07T16:19:00.364Z,6.30
2023-03-07T16:21:27.175Z,6.87
2023-03-07T16:23:53.674Z,5.90
2023-03-07T16:26:22.764Z,5.57
2023-03-07T16:28:53.718Z,4.60
2023-03-07T16:31:21.040Z,4.00
2023-03-07T16:33:47.991Z,3.93
2023-03-07T16:36:15.325Z,4.20
2023-03-07T16:38:42.137Z,4.40
2023-03-07T16:41:16.943Z,4.93
2023-03-07T16:43:45.106Z,4.73
2023-03-07T16:46:15.194Z,4.87
2023-03-07T16:48:42.908Z,4.40
2023-03-07T16:51:16.701Z,3.67
2023-03-07T16:53:47.529Z,4.30
2023-03-07T16:56:30.945Z,3.67
2023-03-07T16:58:58.171Z,5.13
2023-03-07T17:01:24.699Z,4.67
2023-03-07T17:03:51.142Z,5.33
2023-03-07T17:06:18.301Z,4.50
2023-03-07T17:08:45.797Z,4.80
2023-03-07T17:11:21.298Z,5.13
2023-03-07T17:13:50.672Z,4.10
2023-03-07T17:16:17.908Z,4.57
2023-03-07T17:18:44.876Z,5.10
2023-03-07T17:21:16.501Z,4.50
2023-03-07T17:23:44.958Z,5.13
2023-03-07T17:26:32.906Z,4.60
2023-03-07T17:29:05.446Z,4.40
2023-03-07T17:31:31.909Z,4.80
2023-03-07T17:33:58.254Z,4.97
2023-03-07T17:36:24.623Z,4.73
2023-03-07T17:38:51.047Z,5.10
2023-03-07T17:41:17.640Z,4.73
2023-03-07T17:43:43.999Z,4.70
2023-03-07T17:46:11.644Z,4.00
2023-03-07T17:48:38.296Z,5.43
2023-03-07T17:51:09.491Z,6.43
2023-03-07T17:53:37.341Z,4.77
2023-03-07T17:56:09.117Z,5.60
2023-03-07T17:58:35.506Z,6.80
2023-03-07T18:01:01.857Z,7.23
2023-03-07T18:03:28.241Z,6.80
2023-03-07T18:05:54.635Z,7.07
2023-03-07T18:08:21.025Z,6.20
2023-03-07T18:10:47.443Z,6.77
2023-03-07T18:13:14.876Z,5.77
2023-03-07T18:15:45.523Z,5.70
2023-03-07T18:18:11.919Z,5.70
2023-03-07T18:20:38.840Z,5.90
2023-03-07T18:23:05.204Z,6.60
2023-03-07T18:25:31.627Z,6.40
2023-03-07T18:28:01.450Z,7.10
2023-03-07T18:30:27.877Z,7.30
2023-03-07T18:32:55.284Z,6.83
2023-03-07T18:35:23.395Z,10.67
2023-03-07T18:37:49.800Z,18.23
2023-03-07T18:40:16.553Z,14.50
2023-03-07T18:42:43.042Z,9.67
2023-03-07T18:45:10.174Z,9.70
2023-03-07T18:47:36.608Z,10.97
2023-03-07T18:50:03.140Z,11.53
2023-03-07T18:52:29.523Z,10.00
2023-03-07T18:54:55.929Z,9.03
2023-03-07T18:57:22.325Z,8.70
2023-03-07T18:59:48.755Z,8.53
2023-03-07T19:02:15.234Z,9.70
2023-03-07T19:04:41.651Z,8.90
2023-03-07T19:07:08.063Z,9.80
2023-03-07T19:09:34.495Z,9.03
2023-03-07T19:12:00.865Z,11.80
2023-03-07T19:14:27.286Z,13.33
2023-03-07T19:16:53.719Z,13.30
2023-03-07T19:19:20.536Z,16.10
2023-03-07T19:21:46.941Z,16.50
2023-03-07T19:24:13.430Z,15.40
2023-03-07T19:26:41.550Z,12.90
2023-03-07T19:29:09.624Z,15.30
2023-03-07T19:31:36.214Z,13.17
2023-03-07T19:34:05.005Z,15.60
2023-03-07T19:36:32.231Z,14.73
2023-03-07T19:38:59.423Z,16.87
2023-03-07T19:41:27.634Z,18.23
2023-03-07T19:43:56.310Z,12.63
2023-03-07T19:46:23.014Z,11.67
2023-03-07T19:48:49.587Z,11.03
2023-03-07T19:51:22.528Z,11.27
2023-03-07T19:53:49.563Z,15.77
2023-03-07T19:56:20.044Z,17.90
2023-03-07T19:58:46.566Z,16.80
2023-03-07T20:01:15.811Z,22.60
2023-03-07T20:03:42.667Z,20.83
2023-03-07T20:06:14.248Z,21.90
2023-03-07T20:08:40.686Z,20.67
2023-03-07T20:11:18.552Z,18.17
2023-03-07T20:13:46.636Z,14.87
2023-03-07T20:16:13.962Z,14.60
2023-03-07T20:18:40.613Z,17.33
2023-03-07T20:21:12.948Z,18.03
2023-03-07T20:23:42.270Z,16.07
2023-03-07T20:26:14.431Z,14.47
2023-03-07T20:28:41.204Z,13.33
2023-03-07T20:31:09.419Z,12.30
2023-03-07T20:33:37.494Z,12.50
2023-03-07T20:36:07.764Z,10.73
2023-03-07T20:38:35.772Z,10.10
2023-03-07T20:41:04.949Z,9.90
2023-03-07T20:43:33.023Z,9.00
2023-03-07T20:46:10.356Z,9.20
2023-03-07T20:48:39.414Z,8.70
2023-03-07T20:51:10.058Z,8.80
2023-03-07T20:53:36.818Z,9.33
2023-03-07T20:56:05.090Z,9.90
2023-03-07T20:58:32.649Z,10.80
2023-03-07T21:00:59.926Z,11.00
2023-03-07T21:03:27.247Z,10.83
2023-03-07T21:05:59.595Z,9.83
2023-03-07T21:08:27.089Z,10.10
2023-03-07T21:11:03.964Z,9.30
2023-03-07T21:13:31.466Z,9.83
2023-03-07T21:16:00.225Z,10.00
2023-03-07T21:18:27.374Z,9.33
2023-03-07T21:20:53.795Z,10.37
2023-03-07T21:23:20.233Z,9.87
2023-03-07T21:25:47.169Z,10.10
2023-03-07T21:28:13.703Z,9.07
2023-03-07T21:30:40.219Z,9.67
2023-03-07T21:33:06.982Z,9.77
2023-03-07T21:35:39.671Z,9.23
2023-03-07T21:38:06.282Z,9.23
2023-03-07T21:40:32.840Z,9.40
2023-03-07T21:42:59.270Z,9.73
2023-03-07T21:45:25.831Z,10.67
2023-03-07T21:47:54.205Z,9.53
2023-03-07T21:50:20.787Z,9.97
2023-03-07T21:52:47.205Z,10.10
2023-03-07T21:55:13.721Z,9.60
2023-03-07T21:57:40.119Z,8.83
2023-03-07T22:00:08.342Z,8.87
2023-03-07T22:02:37.623Z,9.30
2023-03-07T22:05:04.880Z,7.90
2023-03-07T22:07:31.609Z,8.43
2023-03-07T22:09:58.032Z,7.93
2023-03-07T22:12:24.461Z,8.30
2023-03-07T22:14:50.901Z,9.63
2023-03-07T22:17:17.321Z,7.90
2023-03-07T22:19:43.853Z,7.73
2023-03-07T22:22:10.268Z,7.70
2023-03-07T22:24:36.711Z,7.33
2023-03-07T22:27:03.142Z,8.73
2023-03-07T22:29:29.646Z,7.47
2023-03-07T22:31:56.036Z,8.10
2023-03-07T22:34:22.483Z,7.23
2023-03-07T22:36:50.992Z,8.83
2023-03-07T22:39:17.667Z,7.80
2023-03-07T22:41:44.082Z,8.00
2023-03-07T22:44:11.262Z,7.90
2023-03-07T22:46:37.717Z,8.53
2023-03-07T22:49:04.092Z,9.13
2023-03-07T22:51:30.454Z,9.90
2023-03-07T22:53:56.893Z,10.70
2023-03-07T22:56:26.184Z,11.20
2023-03-07T22:58:53.586Z,10.33
2023-03-07T23:01:22.533Z,11.17
2023-03-07T23:03:50.727Z,11.20
2023-03-07T23:06:17.870Z,9.83
2023-03-07T23:08:45.503Z,10.20
2023-03-07T23:11:12.649Z,9.53
2023-03-07T23:13:39.137Z,9.87
2023-03-07T23:16:08.584Z,10.10
2023-03-07T23:18:35.499Z,10.07
2023-03-07T23:21:03.374Z,9.73
2023-03-07T23:23:29.764Z,7.63
2023-03-07T23:25:56.217Z,8.93
2023-03-07T23:28:22.638Z,9.30
2023-03-07T23:30:49.154Z,10.07
2023-03-07T23:33:15.615Z,9.83
2023-03-07T23:35:42.123Z,9.10
2023-03-07T23:38:12.065Z,9.77
2023-03-07T23:40:38.797Z,9.00
2023-03-07T23:43:05.365Z,10.17
2023-03-07T23:45:32.074Z,10.97
2023-03-07T23:47:58.653Z,10.73
2023-03-07T23:50:25.789Z,9.73
2023-03-07T23:52:52.230Z,10.70
2023-03-07T23:55:18.741Z,10.47
2023-03-07T23:57:48.311Z,11.37
